Hovedside
METAR-TAF:

METAR-TAF

Lufthavner :

Kuopio, Finland

Kuopio lufthavn

breddegrad: 63-01N, lengdegrad: 027-48E, høyde over havet: 98 m

Gjeldene værobservasjon

Denne rapporten ble laget for 24 minutter siden, klokken 05:50 UTC
Vind 14 kt fra Vest-nordvest
Temperatur -3°C
Luftfuktighet 68%
Trykk 1012 hPa
Sikt 10 km eller mer
ingen skyer under 1500 m og ingen bygeskyer

METAR: EFKU 240550Z AUTO 29014KT CAVOK M03/M08 Q1012

Tid: 08:14 (06:14 UTC)

Varsel

Denne rapporten ble laget for 40 minutter siden, klokken 05:34 UTC
Varsel gyldig fra 24. klokken 06 UTC til 25. klokken 06 UTC
Vind 13 kt fra Vest
Sikt 10 km eller mer
ingen skyer under 1500 m og ingen bygeskyer
Sannsynlighet 40% :
Midlertidig
fra 24. klokken 09 UTC til 24. klokken 13 UTC
Vind 15 kt fra Vest-nordvest med vindkast opp mot 27 kt
Blir
fra 24. klokken 20 UTC til 24. klokken 22 UTC
Vind 4 kt fra Sør-sørøst

TAF: EFKU 240534Z 2406/2506 28013KT CAVOK PROB40 TEMPO 2409/2413 30015G27KT BECMG 2420/2422 15004KT

Værobservasjoner og værvarsel for over 4000 flyplasser (METAR- og TAF-rapporter).

Tilgjengelige stasjoner er representert av de røde og gule prikkene på kartet.

Hold musepekeren over prikken for å se navnet på stasjonen.

Klikk så for å se værobservasjoner og -varsler.

For å forandre kartet kan du klikke på den grønne knappen med svart kryss for å zoome inn, på den grønne knappen med strek for å zoome ut, eller på de grønne pilene for å se tilstøtende kart.


METAR-TAF: